sensor_id;sensor_type;location;lat;lon;timestamp;P1;durP1;ratioP1;P2;durP2;ratioP2
32032;SDS011;31720;52.638;9.216;2022-07-21T00:02:34;6.68;;;3.38;;
32032;SDS011;31720;52.638;9.216;2022-07-21T00:05:36;6.22;;;3.55;;
32032;SDS011;31720;52.638;9.216;2022-07-21T00:08:37;6.32;;;4.20;;
32032;SDS011;31720;52.638;9.216;2022-07-21T00:11:40;7.10;;;3.47;;
32032;SDS011;31720;52.638;9.216;2022-07-21T00:14:41;6.03;;;3.40;;
32032;SDS011;31720;52.638;9.216;2022-07-21T00:17:43;7.28;;;3.42;;
32032;SDS011;31720;52.638;9.216;2022-07-21T00:20:44;7.15;;;3.53;;
32032;SDS011;31720;52.638;9.216;2022-07-21T00:23:46;7.75;;;3.85;;
32032;SDS011;31720;52.638;9.216;2022-07-21T00:26:48;9.95;;;4.45;;
32032;SDS011;31720;52.638;9.216;2022-07-21T00:29:50;6.10;;;4.05;;
32032;SDS011;31720;52.638;9.216;2022-07-21T00:32:52;7.15;;;3.80;;
32032;SDS011;31720;52.638;9.216;2022-07-21T00:35:53;5.57;;;3.55;;
32032;SDS011;31720;52.638;9.216;2022-07-21T00:38:54;6.15;;;3.85;;
32032;SDS011;31720;52.638;9.216;2022-07-21T00:41:57;6.70;;;3.83;;
32032;SDS011;31720;52.638;9.216;2022-07-21T00:44:59;6.72;;;3.75;;
32032;SDS011;31720;52.638;9.216;2022-07-21T00:48:01;8.70;;;3.92;;
32032;SDS011;31720;52.638;9.216;2022-07-21T00:51:03;8.10;;;3.80;;
32032;SDS011;31720;52.638;9.216;2022-07-21T00:54:04;6.03;;;3.88;;
32032;SDS011;31720;52.638;9.216;2022-07-21T00:57:07;10.43;;;4.38;;
32032;SDS011;31720;52.638;9.216;2022-07-21T01:00:10;10.20;;;4.35;;
32032;SDS011;31720;52.638;9.216;2022-07-21T01:03:13;12.30;;;4.10;;
32032;SDS011;31720;52.638;9.216;2022-07-21T01:06:15;6.45;;;3.78;;
32032;SDS011;31720;52.638;9.216;2022-07-21T01:09:16;10.73;;;3.95;;
32032;SDS011;31720;52.638;9.216;2022-07-21T01:12:19;7.80;;;3.95;;
32032;SDS011;31720;52.638;9.216;2022-07-21T01:15:20;8.60;;;4.47;;
32032;SDS011;31720;52.638;9.216;2022-07-21T01:18:23;7.70;;;4.45;;
32032;SDS011;31720;52.638;9.216;2022-07-21T01:21:28;7.22;;;4.47;;
32032;SDS011;31720;52.638;9.216;2022-07-21T01:24:31;8.40;;;4.32;;
32032;SDS011;31720;52.638;9.216;2022-07-21T01:27:33;7.22;;;4.32;;
32032;SDS011;31720;52.638;9.216;2022-07-21T01:30:34;8.32;;;3.55;;
32032;SDS011;31720;52.638;9.216;2022-07-21T01:33:35;9.80;;;4.30;;
32032;SDS011;31720;52.638;9.216;2022-07-21T01:36:38;5.38;;;3.90;;
32032;SDS011;31720;52.638;9.216;2022-07-21T01:39:40;8.07;;;4.68;;
32032;SDS011;31720;52.638;9.216;2022-07-21T01:42:59;7.95;;;4.30;;
32032;SDS011;31720;52.638;9.216;2022-07-21T01:46:01;8.20;;;3.95;;
32032;SDS011;31720;52.638;9.216;2022-07-21T01:49:03;8.98;;;3.67;;
32032;SDS011;31720;52.638;9.216;2022-07-21T01:52:06;9.32;;;4.05;;
32032;SDS011;31720;52.638;9.216;2022-07-21T01:55:07;7.88;;;3.63;;
32032;SDS011;31720;52.638;9.216;2022-07-21T01:58:09;5.82;;;3.60;;
32032;SDS011;31720;52.638;9.216;2022-07-21T02:01:10;7.75;;;3.58;;
32032;SDS011;31720;52.638;9.216;2022-07-21T02:04:11;4.82;;;3.47;;
32032;SDS011;31720;52.638;9.216;2022-07-21T02:07:14;8.05;;;3.67;;
32032;SDS011;31720;52.638;9.216;2022-07-21T02:10:16;7.00;;;2.97;;
32032;SDS011;31720;52.638;9.216;2022-07-21T02:13:17;13.43;;;4.18;;
32032;SDS011;31720;52.638;9.216;2022-07-21T02:16:19;5.20;;;3.55;;
32032;SDS011;31720;52.638;9.216;2022-07-21T02:19:20;6.05;;;3.65;;
32032;SDS011;31720;52.638;9.216;2022-07-21T02:22:23;4.97;;;3.00;;
32032;SDS011;31720;52.638;9.216;2022-07-21T02:25:24;4.63;;;2.97;;
32032;SDS011;31720;52.638;9.216;2022-07-21T02:28:26;9.75;;;3.40;;
32032;SDS011;31720;52.638;9.216;2022-07-21T02:31:27;5.22;;;3.20;;
32032;SDS011;31720;52.638;9.216;2022-07-21T02:34:29;4.38;;;2.72;;
32032;SDS011;31720;52.638;9.216;2022-07-21T02:37:31;5.78;;;3.22;;
32032;SDS011;31720;52.638;9.216;2022-07-21T02:40:33;5.22;;;3.00;;
32032;SDS011;31720;52.638;9.216;2022-07-21T02:43:34;8.73;;;2.95;;
32032;SDS011;31720;52.638;9.216;2022-07-21T02:46:36;4.95;;;3.10;;
32032;SDS011;31720;52.638;9.216;2022-07-21T02:49:37;4.28;;;3.00;;
32032;SDS011;31720;52.638;9.216;2022-07-21T02:52:40;6.68;;;3.05;;
32032;SDS011;31720;52.638;9.216;2022-07-21T02:55:41;3.88;;;2.47;;
32032;SDS011;31720;52.638;9.216;2022-07-21T02:58:42;7.85;;;3.17;;
32032;SDS011;31720;52.638;9.216;2022-07-21T03:01:44;4.45;;;2.60;;
32032;SDS011;31720;52.638;9.216;2022-07-21T03:04:45;3.38;;;2.55;;
32032;SDS011;31720;52.638;9.216;2022-07-21T03:07:48;4.68;;;2.63;;
32032;SDS011;31720;52.638;9.216;2022-07-21T03:10:49;3.75;;;2.78;;
32032;SDS011;31720;52.638;9.216;2022-07-21T03:13:51;3.30;;;2.17;;
32032;SDS011;31720;52.638;9.216;2022-07-21T03:16:53;6.10;;;3.15;;
32032;SDS011;31720;52.638;9.216;2022-07-21T03:19:54;4.75;;;2.65;;
32032;SDS011;31720;52.638;9.216;2022-07-21T03:22:56;3.33;;;2.03;;
32032;SDS011;31720;52.638;9.216;2022-07-21T03:25:58;5.82;;;2.53;;
32032;SDS011;31720;52.638;9.216;2022-07-21T03:29:00;5.95;;;2.70;;
32032;SDS011;31720;52.638;9.216;2022-07-21T03:32:01;5.47;;;2.72;;
32032;SDS011;31720;52.638;9.216;2022-07-21T03:35:03;6.13;;;2.80;;
32032;SDS011;31720;52.638;9.216;2022-07-21T03:38:07;3.03;;;2.33;;
32032;SDS011;31720;52.638;9.216;2022-07-21T03:41:08;4.18;;;2.30;;
32032;SDS011;31720;52.638;9.216;2022-07-21T03:44:10;3.75;;;2.30;;
32032;SDS011;31720;52.638;9.216;2022-07-21T03:47:11;4.47;;;2.55;;
32032;SDS011;31720;52.638;9.216;2022-07-21T03:50:13;4.88;;;3.17;;
32032;SDS011;31720;52.638;9.216;2022-07-21T03:53:17;3.58;;;2.13;;
32032;SDS011;31720;52.638;9.216;2022-07-21T03:56:19;2.95;;;1.83;;
32032;SDS011;31720;52.638;9.216;2022-07-21T03:59:20;3.83;;;2.38;;
32032;SDS011;31720;52.638;9.216;2022-07-21T04:02:21;3.17;;;1.88;;
32032;SDS011;31720;52.638;9.216;2022-07-21T04:05:23;2.13;;;1.83;;
32032;SDS011;31720;52.638;9.216;2022-07-21T04:08:26;2.75;;;1.75;;
32032;SDS011;31720;52.638;9.216;2022-07-21T04:11:28;2.72;;;1.60;;
32032;SDS011;31720;52.638;9.216;2022-07-21T04:14:30;2.35;;;1.58;;
32032;SDS011;31720;52.638;9.216;2022-07-21T04:17:31;3.38;;;2.00;;
32032;SDS011;31720;52.638;9.216;2022-07-21T04:20:33;4.13;;;2.17;;
32032;SDS011;31720;52.638;9.216;2022-07-21T04:23:36;5.97;;;2.05;;
32032;SDS011;31720;52.638;9.216;2022-07-21T04:26:37;2.78;;;2.05;;
32032;SDS011;31720;52.638;9.216;2022-07-21T04:29:38;4.63;;;1.92;;
32032;SDS011;31720;52.638;9.216;2022-07-21T04:32:40;2.42;;;1.73;;
32032;SDS011;31720;52.638;9.216;2022-07-21T04:35:41;3.55;;;1.90;;
32032;SDS011;31720;52.638;9.216;2022-07-21T04:38:44;4.40;;;2.05;;
32032;SDS011;31720;52.638;9.216;2022-07-21T04:41:45;3.30;;;1.55;;
32032;SDS011;31720;52.638;9.216;2022-07-21T04:44:47;3.67;;;1.80;;
32032;SDS011;31720;52.638;9.216;2022-07-21T04:47:49;5.05;;;2.38;;
32032;SDS011;31720;52.638;9.216;2022-07-21T04:50:52;2.50;;;1.52;;
32032;SDS011;31720;52.638;9.216;2022-07-21T04:53:56;3.22;;;1.90;;
32032;SDS011;31720;52.638;9.216;2022-07-21T04:56:57;3.38;;;1.88;;
32032;SDS011;31720;52.638;9.216;2022-07-21T04:59:59;3.35;;;1.40;;
32032;SDS011;31720;52.638;9.216;2022-07-21T05:03:03;4.25;;;1.85;;
32032;SDS011;31720;52.638;9.216;2022-07-21T05:06:04;4.15;;;1.88;;
32032;SDS011;31720;52.638;9.216;2022-07-21T05:09:07;2.75;;;1.80;;
32032;SDS011;31720;52.638;9.216;2022-07-21T05:12:09;2.78;;;1.50;;
32032;SDS011;31720;52.638;9.216;2022-07-21T05:15:12;3.47;;;2.08;;
32032;SDS011;31720;52.638;9.216;2022-07-21T05:18:13;2.53;;;1.73;;
32032;SDS011;31720;52.638;9.216;2022-07-21T05:21:15;2.72;;;1.92;;
32032;SDS011;31720;52.638;9.216;2022-07-21T05:24:17;3.50;;;1.98;;
32032;SDS011;31720;52.638;9.216;2022-07-21T05:27:19;5.65;;;2.45;;
32032;SDS011;31720;52.638;9.216;2022-07-21T05:30:20;4.38;;;1.98;;
32032;SDS011;31720;52.638;9.216;2022-07-21T05:33:21;4.13;;;1.77;;
32032;SDS011;31720;52.638;9.216;2022-07-21T05:36:23;4.85;;;1.95;;
32032;SDS011;31720;52.638;9.216;2022-07-21T05:39:25;5.20;;;2.33;;
32032;SDS011;31720;52.638;9.216;2022-07-21T05:42:27;3.30;;;2.00;;
32032;SDS011;31720;52.638;9.216;2022-07-21T05:45:28;2.85;;;2.17;;
32032;SDS011;31720;52.638;9.216;2022-07-21T05:48:29;4.50;;;2.00;;
32032;SDS011;31720;52.638;9.216;2022-07-21T05:51:31;2.88;;;1.80;;
32032;SDS011;31720;52.638;9.216;2022-07-21T05:54:34;4.38;;;2.15;;
32032;SDS011;31720;52.638;9.216;2022-07-21T05:57:36;3.42;;;2.08;;
32032;SDS011;31720;52.638;9.216;2022-07-21T06:00:37;5.32;;;2.40;;
32032;SDS011;31720;52.638;9.216;2022-07-21T06:03:40;4.30;;;2.10;;
32032;SDS011;31720;52.638;9.216;2022-07-21T06:06:42;3.33;;;2.38;;
32032;SDS011;31720;52.638;9.216;2022-07-21T06:09:45;4.80;;;2.30;;
32032;SDS011;31720;52.638;9.216;2022-07-21T06:12:46;6.30;;;3.03;;
32032;SDS011;31720;52.638;9.216;2022-07-21T06:15:48;3.05;;;2.30;;
32032;SDS011;31720;52.638;9.216;2022-07-21T06:18:49;4.78;;;2.22;;
32032;SDS011;31720;52.638;9.216;2022-07-21T06:21:50;3.53;;;2.53;;
32032;SDS011;31720;52.638;9.216;2022-07-21T06:24:53;5.78;;;2.58;;
32032;SDS011;31720;52.638;9.216;2022-07-21T06:27:54;3.88;;;2.50;;
32032;SDS011;31720;52.638;9.216;2022-07-21T06:30:56;7.82;;;3.08;;
32032;SDS011;31720;52.638;9.216;2022-07-21T06:33:57;5.45;;;2.47;;
32032;SDS011;31720;52.638;9.216;2022-07-21T06:36:58;3.55;;;2.28;;
32032;SDS011;31720;52.638;9.216;2022-07-21T06:40:01;2.63;;;2.05;;
32032;SDS011;31720;52.638;9.216;2022-07-21T06:43:03;4.93;;;2.30;;
32032;SDS011;31720;52.638;9.216;2022-07-21T06:46:04;4.57;;;2.70;;
32032;SDS011;31720;52.638;9.216;2022-07-21T06:49:06;7.60;;;2.70;;
32032;SDS011;31720;52.638;9.216;2022-07-21T06:52:07;4.28;;;2.67;;
32032;SDS011;31720;52.638;9.216;2022-07-21T06:55:10;8.10;;;2.30;;
32032;SDS011;31720;52.638;9.216;2022-07-21T06:58:12;3.95;;;2.17;;
32032;SDS011;31720;52.638;9.216;2022-07-21T07:01:15;5.63;;;2.45;;
32032;SDS011;31720;52.638;9.216;2022-07-21T07:04:18;2.35;;;1.60;;
32032;SDS011;31720;52.638;9.216;2022-07-21T07:07:19;4.03;;;2.17;;
32032;SDS011;31720;52.638;9.216;2022-07-21T07:10:22;5.35;;;1.98;;
32032;SDS011;31720;52.638;9.216;2022-07-21T07:13:24;3.38;;;2.03;;
32032;SDS011;31720;52.638;9.216;2022-07-21T07:16:25;3.17;;;2.00;;
32032;SDS011;31720;52.638;9.216;2022-07-21T07:19:27;2.75;;;1.70;;
32032;SDS011;31720;52.638;9.216;2022-07-21T07:22:28;5.25;;;2.00;;
32032;SDS011;31720;52.638;9.216;2022-07-21T07:25:31;3.60;;;1.77;;
32032;SDS011;31720;52.638;9.216;2022-07-21T07:28:32;2.28;;;1.95;;
32032;SDS011;31720;52.638;9.216;2022-07-21T07:31:34;4.18;;;2.60;;
32032;SDS011;31720;52.638;9.216;2022-07-21T07:34:36;3.10;;;2.08;;
32032;SDS011;31720;52.638;9.216;2022-07-21T07:37:37;2.30;;;1.65;;
32032;SDS011;31720;52.638;9.216;2022-07-21T07:40:41;2.28;;;1.73;;
32032;SDS011;31720;52.638;9.216;2022-07-21T07:43:43;2.95;;;2.00;;
32032;SDS011;31720;52.638;9.216;2022-07-21T07:46:45;6.57;;;2.20;;
32032;SDS011;31720;52.638;9.216;2022-07-21T07:49:46;4.07;;;2.25;;
32032;SDS011;31720;52.638;9.216;2022-07-21T07:52:49;2.85;;;1.83;;
32032;SDS011;31720;52.638;9.216;2022-07-21T07:55:52;2.40;;;1.20;;
32032;SDS011;31720;52.638;9.216;2022-07-21T07:58:53;1.63;;;1.20;;
32032;SDS011;31720;52.638;9.216;2022-07-21T08:01:54;1.20;;;1.10;;
32032;SDS011;31720;52.638;9.216;2022-07-21T08:04:56;1.38;;;1.10;;
32032;SDS011;31720;52.638;9.216;2022-07-21T08:07:57;1.33;;;1.10;;
32032;SDS011;31720;52.638;9.216;2022-07-21T08:11:00;2.63;;;1.20;;
32032;SDS011;31720;52.638;9.216;2022-07-21T08:14:01;0.98;;;0.90;;
32032;SDS011;31720;52.638;9.216;2022-07-21T08:17:03;2.17;;;0.95;;
32032;SDS011;31720;52.638;9.216;2022-07-21T08:20:04;1.45;;;1.05;;
32032;SDS011;31720;52.638;9.216;2022-07-21T08:23:06;2.75;;;1.38;;
32032;SDS011;31720;52.638;9.216;2022-07-21T08:26:09;1.45;;;0.95;;
32032;SDS011;31720;52.638;9.216;2022-07-21T08:29:10;2.00;;;1.27;;
32032;SDS011;31720;52.638;9.216;2022-07-21T08:32:12;1.55;;;1.20;;
32032;SDS011;31720;52.638;9.216;2022-07-21T08:35:13;1.48;;;1.10;;
32032;SDS011;31720;52.638;9.216;2022-07-21T08:38:14;1.20;;;1.05;;
32032;SDS011;31720;52.638;9.216;2022-07-21T08:41:17;1.15;;;1.00;;
32032;SDS011;31720;52.638;9.216;2022-07-21T08:44:20;1.75;;;1.10;;
32032;SDS011;31720;52.638;9.216;2022-07-21T08:47:22;2.35;;;1.00;;
32032;SDS011;31720;52.638;9.216;2022-07-21T08:50:25;1.42;;;0.90;;
32032;SDS011;31720;52.638;9.216;2022-07-21T08:53:28;2.72;;;1.08;;
32032;SDS011;31720;52.638;9.216;2022-07-21T08:56:31;1.23;;;1.00;;
32032;SDS011;31720;52.638;9.216;2022-07-21T08:59:32;0.70;;;0.70;;
32032;SDS011;31720;52.638;9.216;2022-07-21T09:02:34;1.15;;;1.05;;
32032;SDS011;31720;52.638;9.216;2022-07-21T09:05:37;1.98;;;1.33;;
32032;SDS011;31720;52.638;9.216;2022-07-21T09:08:40;3.08;;;1.70;;
32032;SDS011;31720;52.638;9.216;2022-07-21T09:11:44;1.23;;;1.13;;
32032;SDS011;31720;52.638;9.216;2022-07-21T09:14:45;1.30;;;0.98;;
32032;SDS011;31720;52.638;9.216;2022-07-21T09:17:47;2.35;;;1.42;;
32032;SDS011;31720;52.638;9.216;2022-07-21T09:21:05;4.30;;;1.93;;
32032;SDS011;31720;52.638;9.216;2022-07-21T09:24:10;2.95;;;1.73;;
32032;SDS011;31720;52.638;9.216;2022-07-21T09:27:14;1.45;;;1.15;;
32032;SDS011;31720;52.638;9.216;2022-07-21T09:30:17;1.98;;;1.60;;
32032;SDS011;31720;52.638;9.216;2022-07-21T09:33:22;5.43;;;3.05;;
32032;SDS011;31720;52.638;9.216;2022-07-21T09:36:25;3.80;;;2.03;;
32032;SDS011;31720;52.638;9.216;2022-07-21T09:39:42;3.38;;;2.25;;
32032;SDS011;31720;52.638;9.216;2022-07-21T09:42:47;3.22;;;2.20;;
32032;SDS011;31720;52.638;9.216;2022-07-21T09:45:49;1.73;;;1.60;;
32032;SDS011;31720;52.638;9.216;2022-07-21T09:48:52;3.13;;;2.35;;
32032;SDS011;31720;52.638;9.216;2022-07-21T09:51:54;4.43;;;2.30;;
32032;SDS011;31720;52.638;9.216;2022-07-21T09:54:57;4.70;;;2.88;;
32032;SDS011;31720;52.638;9.216;2022-07-21T09:58:00;5.30;;;3.45;;
32032;SDS011;31720;52.638;9.216;2022-07-21T10:01:02;3.70;;;2.78;;
32032;SDS011;31720;52.638;9.216;2022-07-21T10:04:04;4.35;;;2.78;;
32032;SDS011;31720;52.638;9.216;2022-07-21T10:07:06;3.92;;;2.83;;
32032;SDS011;31720;52.638;9.216;2022-07-21T10:10:08;6.68;;;2.85;;
32032;SDS011;31720;52.638;9.216;2022-07-21T10:13:11;3.55;;;2.75;;
32032;SDS011;31720;52.638;9.216;2022-07-21T10:16:14;4.32;;;2.95;;
32032;SDS011;31720;52.638;9.216;2022-07-21T10:19:18;4.43;;;2.80;;
32032;SDS011;31720;52.638;9.216;2022-07-21T10:22:25;4.47;;;2.95;;
32032;SDS011;31720;52.638;9.216;2022-07-21T10:25:35;7.78;;;3.45;;
32032;SDS011;31720;52.638;9.216;2022-07-21T10:28:39;3.92;;;3.20;;
32032;SDS011;31720;52.638;9.216;2022-07-21T10:31:41;4.38;;;3.45;;
32032;SDS011;31720;52.638;9.216;2022-07-21T10:34:43;5.47;;;3.90;;
32032;SDS011;31720;52.638;9.216;2022-07-21T10:37:49;6.53;;;4.47;;
32032;SDS011;31720;52.638;9.216;2022-07-21T10:40:50;6.68;;;3.90;;
32032;SDS011;31720;52.638;9.216;2022-07-21T10:43:53;7.50;;;4.45;;
32032;SDS011;31720;52.638;9.216;2022-07-21T10:46:59;5.30;;;3.83;;
32032;SDS011;31720;52.638;9.216;2022-07-21T10:50:03;5.63;;;3.95;;
32032;SDS011;31720;52.638;9.216;2022-07-21T10:53:11;4.68;;;3.80;;
32032;SDS011;31720;52.638;9.216;2022-07-21T10:56:25;7.55;;;3.97;;
32032;SDS011;31720;52.638;9.216;2022-07-21T10:59:31;6.38;;;4.80;;
32032;SDS011;31720;52.638;9.216;2022-07-21T11:03:15;7.65;;;3.67;;
32032;SDS011;31720;52.638;9.216;2022-07-21T11:06:19;6.28;;;4.40;;
32032;SDS011;31720;52.638;9.216;2022-07-21T11:09:23;5.78;;;4.18;;
32032;SDS011;31720;52.638;9.216;2022-07-21T11:12:31;8.68;;;4.57;;
32032;SDS011;31720;52.638;9.216;2022-07-21T11:16:00;6.43;;;4.28;;
32032;SDS011;31720;52.638;9.216;2022-07-21T11:19:01;7.45;;;4.60;;
32032;SDS011;31720;52.638;9.216;2022-07-21T11:22:04;10.27;;;4.00;;
32032;SDS011;31720;52.638;9.216;2022-07-21T11:25:07;11.57;;;4.75;;
32032;SDS011;31720;52.638;9.216;2022-07-21T11:28:15;6.95;;;4.68;;
32032;SDS011;31720;52.638;9.216;2022-07-21T11:31:19;7.05;;;4.57;;
32032;SDS011;31720;52.638;9.216;2022-07-21T11:34:24;6.18;;;4.25;;
32032;SDS011;31720;52.638;9.216;2022-07-21T11:37:27;8.05;;;5.20;;
32032;SDS011;31720;52.638;9.216;2022-07-21T11:40:29;4.65;;;3.97;;
32032;SDS011;31720;52.638;9.216;2022-07-21T11:43:38;5.53;;;3.85;;
32032;SDS011;31720;52.638;9.216;2022-07-21T11:46:45;6.22;;;3.85;;
32032;SDS011;31720;52.638;9.216;2022-07-21T11:49:47;9.13;;;4.32;;
32032;SDS011;31720;52.638;9.216;2022-07-21T11:52:52;5.25;;;3.65;;
32032;SDS011;31720;52.638;9.216;2022-07-21T11:55:54;6.45;;;4.45;;
32032;SDS011;31720;52.638;9.216;2022-07-21T11:59:07;4.72;;;3.72;;
32032;SDS011;31720;52.638;9.216;2022-07-21T12:02:12;7.68;;;3.97;;
32032;SDS011;31720;52.638;9.216;2022-07-21T12:05:15;7.88;;;4.18;;
32032;SDS011;31720;52.638;9.216;2022-07-21T12:08:16;9.35;;;3.10;;
32032;SDS011;31720;52.638;9.216;2022-07-21T12:11:18;3.78;;;2.90;;
32032;SDS011;31720;52.638;9.216;2022-07-21T12:14:19;4.70;;;3.28;;
32032;SDS011;31720;52.638;9.216;2022-07-21T12:17:34;3.10;;;2.22;;
32032;SDS011;31720;52.638;9.216;2022-07-21T12:20:37;4.03;;;2.40;;
32032;SDS011;31720;52.638;9.216;2022-07-21T12:23:40;3.53;;;2.42;;
32032;SDS011;31720;52.638;9.216;2022-07-21T12:26:42;4.13;;;2.35;;
32032;SDS011;31720;52.638;9.216;2022-07-21T12:29:44;4.57;;;2.30;;
32032;SDS011;31720;52.638;9.216;2022-07-21T12:32:47;2.30;;;2.08;;
32032;SDS011;31720;52.638;9.216;2022-07-21T12:35:57;5.03;;;3.25;;
32032;SDS011;31720;52.638;9.216;2022-07-21T12:39:01;3.75;;;2.60;;
32032;SDS011;31720;52.638;9.216;2022-07-21T12:42:26;7.28;;;2.95;;
32032;SDS011;31720;52.638;9.216;2022-07-21T12:45:30;5.82;;;3.05;;
32032;SDS011;31720;52.638;9.216;2022-07-21T12:48:33;3.90;;;2.65;;
32032;SDS011;31720;52.638;9.216;2022-07-21T12:51:36;4.60;;;2.78;;
32032;SDS011;31720;52.638;9.216;2022-07-21T12:54:38;3.83;;;2.80;;
32032;SDS011;31720;52.638;9.216;2022-07-21T12:57:40;3.83;;;2.33;;
32032;SDS011;31720;52.638;9.216;2022-07-21T13:00:41;3.97;;;2.53;;
32032;SDS011;31720;52.638;9.216;2022-07-21T13:03:44;2.65;;;2.22;;
32032;SDS011;31720;52.638;9.216;2022-07-21T13:06:46;4.00;;;2.63;;
32032;SDS011;31720;52.638;9.216;2022-07-21T13:09:47;2.70;;;1.77;;
32032;SDS011;31720;52.638;9.216;2022-07-21T13:12:48;3.42;;;2.33;;
32032;SDS011;31720;52.638;9.216;2022-07-21T13:15:50;7.72;;;2.30;;
32032;SDS011;31720;52.638;9.216;2022-07-21T13:18:53;3.13;;;1.92;;
32032;SDS011;31720;52.638;9.216;2022-07-21T13:21:56;3.17;;;1.88;;
32032;SDS011;31720;52.638;9.216;2022-07-21T13:24:57;4.20;;;1.45;;
32032;SDS011;31720;52.638;9.216;2022-07-21T13:27:58;3.65;;;2.00;;
32032;SDS011;31720;52.638;9.216;2022-07-21T13:31:00;3.03;;;2.30;;
32032;SDS011;31720;52.638;9.216;2022-07-21T13:34:02;4.15;;;2.42;;
32032;SDS011;31720;52.638;9.216;2022-07-21T13:37:06;4.88;;;3.22;;
32032;SDS011;31720;52.638;9.216;2022-07-21T13:40:11;4.32;;;3.10;;
32032;SDS011;31720;52.638;9.216;2022-07-21T13:43:13;4.20;;;3.05;;
32032;SDS011;31720;52.638;9.216;2022-07-21T13:46:16;6.78;;;3.10;;
32032;SDS011;31720;52.638;9.216;2022-07-21T13:49:19;5.32;;;3.35;;
32032;SDS011;31720;52.638;9.216;2022-07-21T13:52:20;3.40;;;2.50;;
32032;SDS011;31720;52.638;9.216;2022-07-21T13:55:21;3.65;;;2.90;;
32032;SDS011;31720;52.638;9.216;2022-07-21T13:58:22;4.97;;;3.20;;
32032;SDS011;31720;52.638;9.216;2022-07-21T14:01:24;7.80;;;2.88;;
32032;SDS011;31720;52.638;9.216;2022-07-21T14:04:26;3.22;;;2.40;;
32032;SDS011;31720;52.638;9.216;2022-07-21T14:07:28;4.32;;;2.55;;
32032;SDS011;31720;52.638;9.216;2022-07-21T14:10:30;3.65;;;2.42;;
32032;SDS011;31720;52.638;9.216;2022-07-21T14:13:33;3.97;;;2.80;;
32032;SDS011;31720;52.638;9.216;2022-07-21T14:16:34;4.43;;;2.85;;
32032;SDS011;31720;52.638;9.216;2022-07-21T14:19:37;4.25;;;2.88;;
32032;SDS011;31720;52.638;9.216;2022-07-21T14:22:38;5.28;;;2.88;;
32032;SDS011;31720;52.638;9.216;2022-07-21T14:25:39;3.50;;;2.47;;
32032;SDS011;31720;52.638;9.216;2022-07-21T14:28:41;4.38;;;2.65;;
32032;SDS011;31720;52.638;9.216;2022-07-21T14:31:42;3.60;;;2.30;;
32032;SDS011;31720;52.638;9.216;2022-07-21T14:34:45;4.63;;;2.42;;
32032;SDS011;31720;52.638;9.216;2022-07-21T14:37:47;6.15;;;3.17;;
32032;SDS011;31720;52.638;9.216;2022-07-21T14:40:49;3.17;;;2.50;;
32032;SDS011;31720;52.638;9.216;2022-07-21T14:43:50;3.78;;;2.63;;
32032;SDS011;31720;52.638;9.216;2022-07-21T14:46:51;4.45;;;2.85;;
32032;SDS011;31720;52.638;9.216;2022-07-21T14:49:54;6.07;;;2.65;;
32032;SDS011;31720;52.638;9.216;2022-07-21T14:52:56;2.55;;;2.35;;
32032;SDS011;31720;52.638;9.216;2022-07-21T14:55:58;4.57;;;2.45;;
32032;SDS011;31720;52.638;9.216;2022-07-21T14:59:00;4.88;;;2.42;;
32032;SDS011;31720;52.638;9.216;2022-07-21T15:02:01;2.67;;;2.10;;
32032;SDS011;31720;52.638;9.216;2022-07-21T15:05:04;4.32;;;2.70;;
32032;SDS011;31720;52.638;9.216;2022-07-21T15:08:06;2.90;;;2.00;;
32032;SDS011;31720;52.638;9.216;2022-07-21T15:11:07;5.40;;;2.65;;
32032;SDS011;31720;52.638;9.216;2022-07-21T15:14:08;2.53;;;2.05;;
32032;SDS011;31720;52.638;9.216;2022-07-21T15:17:10;5.45;;;2.35;;
32032;SDS011;31720;52.638;9.216;2022-07-21T15:20:13;4.93;;;2.60;;
32032;SDS011;31720;52.638;9.216;2022-07-21T15:23:14;2.95;;;2.45;;
32032;SDS011;31720;52.638;9.216;2022-07-21T15:26:16;3.15;;;2.20;;
32032;SDS011;31720;52.638;9.216;2022-07-21T15:29:17;2.45;;;1.15;;
32032;SDS011;31720;52.638;9.216;2022-07-21T15:32:19;2.03;;;1.00;;
32032;SDS011;31720;52.638;9.216;2022-07-21T15:35:21;1.42;;;1.10;;
32032;SDS011;31720;52.638;9.216;2022-07-21T15:38:23;1.42;;;1.00;;
32032;SDS011;31720;52.638;9.216;2022-07-21T15:41:25;1.10;;;1.00;;
32032;SDS011;31720;52.638;9.216;2022-07-21T15:44:27;3.75;;;1.20;;
32032;SDS011;31720;52.638;9.216;2022-07-21T15:47:28;1.23;;;1.13;;
32032;SDS011;31720;52.638;9.216;2022-07-21T15:50:31;3.15;;;1.20;;
32032;SDS011;31720;52.638;9.216;2022-07-21T15:53:32;2.08;;;1.48;;
32032;SDS011;31720;52.638;9.216;2022-07-21T15:56:33;1.65;;;1.45;;
32032;SDS011;31720;52.638;9.216;2022-07-21T15:59:35;4.45;;;1.50;;
32032;SDS011;31720;52.638;9.216;2022-07-21T16:02:37;1.70;;;1.20;;
32032;SDS011;31720;52.638;9.216;2022-07-21T16:05:42;1.88;;;1.42;;
32032;SDS011;31720;52.638;9.216;2022-07-21T16:08:43;1.63;;;1.45;;
32032;SDS011;31720;52.638;9.216;2022-07-21T16:11:44;3.83;;;1.63;;
32032;SDS011;31720;52.638;9.216;2022-07-21T16:14:46;6.13;;;2.42;;
32032;SDS011;31720;52.638;9.216;2022-07-21T16:17:47;1.95;;;1.45;;
32032;SDS011;31720;52.638;9.216;2022-07-21T16:20:51;3.38;;;1.70;;
32032;SDS011;31720;52.638;9.216;2022-07-21T16:23:52;3.10;;;1.65;;
32032;SDS011;31720;52.638;9.216;2022-07-21T16:26:53;2.88;;;1.55;;
32032;SDS011;31720;52.638;9.216;2022-07-21T16:29:55;6.65;;;2.35;;
32032;SDS011;31720;52.638;9.216;2022-07-21T16:32:56;3.05;;;2.13;;
32032;SDS011;31720;52.638;9.216;2022-07-21T16:35:59;5.03;;;2.55;;
32032;SDS011;31720;52.638;9.216;2022-07-21T16:39:00;5.13;;;2.00;;
32032;SDS011;31720;52.638;9.216;2022-07-21T16:42:03;3.83;;;1.92;;
32032;SDS011;31720;52.638;9.216;2022-07-21T16:45:05;2.05;;;1.65;;
32032;SDS011;31720;52.638;9.216;2022-07-21T16:48:07;3.45;;;1.70;;
32032;SDS011;31720;52.638;9.216;2022-07-21T16:51:10;3.22;;;1.85;;
32032;SDS011;31720;52.638;9.216;2022-07-21T16:54:11;3.97;;;2.13;;
32032;SDS011;31720;52.638;9.216;2022-07-21T16:57:13;3.22;;;2.38;;
32032;SDS011;31720;52.638;9.216;2022-07-21T17:00:15;2.45;;;1.88;;
32032;SDS011;31720;52.638;9.216;2022-07-21T17:03:17;3.80;;;1.95;;
32032;SDS011;31720;52.638;9.216;2022-07-21T17:06:20;4.53;;;2.25;;
32032;SDS011;31720;52.638;9.216;2022-07-21T17:09:22;3.25;;;2.28;;
32032;SDS011;31720;52.638;9.216;2022-07-21T17:12:23;3.55;;;2.75;;
32032;SDS011;31720;52.638;9.216;2022-07-21T17:15:24;4.72;;;2.70;;
32032;SDS011;31720;52.638;9.216;2022-07-21T17:18:26;5.18;;;2.50;;
32032;SDS011;31720;52.638;9.216;2022-07-21T17:21:28;7.60;;;2.72;;
32032;SDS011;31720;52.638;9.216;2022-07-21T17:24:30;3.55;;;2.35;;
32032;SDS011;31720;52.638;9.216;2022-07-21T17:27:31;3.45;;;2.70;;
32032;SDS011;31720;52.638;9.216;2022-07-21T17:30:33;3.83;;;2.63;;
32032;SDS011;31720;52.638;9.216;2022-07-21T17:33:35;4.68;;;2.75;;
32032;SDS011;31720;52.638;9.216;2022-07-21T17:36:37;5.95;;;3.28;;
32032;SDS011;31720;52.638;9.216;2022-07-21T17:39:39;5.13;;;2.88;;
32032;SDS011;31720;52.638;9.216;2022-07-21T17:42:40;7.05;;;3.50;;
32032;SDS011;31720;52.638;9.216;2022-07-21T17:45:42;4.03;;;2.33;;
32032;SDS011;31720;52.638;9.216;2022-07-21T17:48:44;2.47;;;1.75;;
32032;SDS011;31720;52.638;9.216;2022-07-21T17:51:47;4.80;;;2.30;;
32032;SDS011;31720;52.638;9.216;2022-07-21T17:54:48;3.90;;;2.28;;
32032;SDS011;31720;52.638;9.216;2022-07-21T17:57:49;5.72;;;2.58;;
32032;SDS011;31720;52.638;9.216;2022-07-21T18:01:15;3.50;;;2.38;;
32032;SDS011;31720;52.638;9.216;2022-07-21T18:04:18;2.45;;;2.03;;
32032;SDS011;31720;52.638;9.216;2022-07-21T18:07:20;3.55;;;2.50;;
32032;SDS011;31720;52.638;9.216;2022-07-21T18:10:22;3.38;;;2.40;;
32032;SDS011;31720;52.638;9.216;2022-07-21T18:13:23;4.30;;;2.78;;
32032;SDS011;31720;52.638;9.216;2022-07-21T18:16:25;5.43;;;2.80;;
32032;SDS011;31720;52.638;9.216;2022-07-21T18:19:27;2.85;;;2.28;;
32032;SDS011;31720;52.638;9.216;2022-07-21T18:22:29;3.42;;;2.10;;